createdAt,value
2017-10-27T00:00:40.289Z,99.90
2017-10-27T00:03:08.723Z,99.90
2017-10-27T00:05:36.423Z,99.90
2017-10-27T00:08:04.861Z,99.90
2017-10-27T00:10:32.525Z,99.90
2017-10-27T00:13:01.224Z,99.90
2017-10-27T00:15:29.443Z,99.90
2017-10-27T00:17:58.275Z,99.90
2017-10-27T00:20:25.904Z,99.90
2017-10-27T00:22:53.585Z,99.90
2017-10-27T00:25:21.212Z,99.90
2017-10-27T00:27:49.024Z,99.90
2017-10-27T00:30:16.680Z,99.90
2017-10-27T00:32:44.316Z,99.90
2017-10-27T00:35:11.991Z,99.90
2017-10-27T00:37:39.624Z,99.90
2017-10-27T00:40:07.283Z,99.90
2017-10-27T00:42:34.935Z,99.90
2017-10-27T00:45:02.672Z,99.90
2017-10-27T00:47:31.083Z,99.90
2017-10-27T00:49:58.725Z,99.90
2017-10-27T00:52:27.148Z,99.90
2017-10-27T00:54:54.781Z,99.90
2017-10-27T00:57:22.507Z,99.90
2017-10-27T00:59:50.968Z,99.90
2017-10-27T01:02:18.678Z,99.90
2017-10-27T01:04:46.308Z,99.90
2017-10-27T01:07:14.765Z,99.90
2017-10-27T01:09:42.421Z,99.90
2017-10-27T01:12:10.083Z,99.90
2017-10-27T01:14:37.805Z,99.90
2017-10-27T01:17:05.456Z,99.90
2017-10-27T01:19:33.208Z,99.90
2017-10-27T01:22:01.676Z,99.90
2017-10-27T01:24:30.140Z,99.90
2017-10-27T01:26:57.815Z,99.90
2017-10-27T01:29:25.518Z,99.90
2017-10-27T01:31:53.240Z,99.90
2017-10-27T01:34:22.292Z,99.90
2017-10-27T01:36:50.564Z,99.90
2017-10-27T01:39:18.849Z,99.90
2017-10-27T01:41:47.168Z,99.90
2017-10-27T01:44:15.647Z,99.90
2017-10-27T01:46:44.121Z,99.90
2017-10-27T01:49:11.851Z,99.90
2017-10-27T01:51:39.566Z,99.90
2017-10-27T01:54:07.299Z,99.90
2017-10-27T01:56:35.758Z,99.90
2017-10-27T01:59:03.443Z,99.90
2017-10-27T02:01:31.976Z,99.90
2017-10-27T02:03:59.689Z,99.90
2017-10-27T02:06:27.406Z,99.90
2017-10-27T02:08:55.101Z,99.90
2017-10-27T02:11:22.913Z,99.90
2017-10-27T02:13:50.591Z,99.90
2017-10-27T02:16:18.263Z,99.90
2017-10-27T02:18:45.986Z,99.90
2017-10-27T02:21:13.666Z,99.90
2017-10-27T02:23:41.381Z,99.90
2017-10-27T02:26:09.091Z,99.90
2017-10-27T02:28:36.798Z,99.90
2017-10-27T02:31:05.275Z,99.90
2017-10-27T02:33:33.739Z,99.90
2017-10-27T02:36:01.460Z,99.90
2017-10-27T02:38:29.163Z,99.90
2017-10-27T02:40:56.878Z,99.90
2017-10-27T02:43:24.520Z,99.90
2017-10-27T02:45:52.320Z,99.90
2017-10-27T02:48:19.964Z,99.90
2017-10-27T02:50:47.601Z,99.90
2017-10-27T02:53:15.294Z,99.90
2017-10-27T02:55:43.012Z,99.90
2017-10-27T02:58:11.453Z,99.90
2017-10-27T03:00:39.095Z,99.90
2017-10-27T03:03:06.866Z,99.90
2017-10-27T03:05:34.559Z,99.90
2017-10-27T03:08:02.200Z,99.90
2017-10-27T03:10:29.885Z,99.90
2017-10-27T03:12:58.319Z,99.90
2017-10-27T03:15:26.072Z,99.90
2017-10-27T03:17:53.725Z,99.90
2017-10-27T03:20:21.428Z,99.90
2017-10-27T03:22:49.074Z,99.90
2017-10-27T03:25:16.732Z,99.90
2017-10-27T03:27:44.387Z,99.90
2017-10-27T03:30:12.082Z,99.90
2017-10-27T03:32:39.805Z,99.90
2017-10-27T03:35:07.440Z,99.90
2017-10-27T03:37:35.083Z,99.90
2017-10-27T03:40:03.556Z,99.90
2017-10-27T03:42:31.977Z,99.90
2017-10-27T03:44:59.661Z,99.90
2017-10-27T03:47:27.301Z,99.90
2017-10-27T03:49:55.024Z,99.90
2017-10-27T03:52:22.684Z,99.90
2017-10-27T03:54:50.339Z,99.90
2017-10-27T03:57:18.840Z,99.90
2017-10-27T03:59:46.524Z,99.90
2017-10-27T04:02:14.214Z,99.90
2017-10-27T04:04:41.896Z,99.90
2017-10-27T04:07:10.368Z,99.90
2017-10-27T04:09:38.795Z,99.90
2017-10-27T04:12:06.495Z,99.90
2017-10-27T04:14:34.210Z,99.90
2017-10-27T04:17:01.918Z,99.90
2017-10-27T04:19:29.682Z,99.90
2017-10-27T04:21:57.368Z,99.90
2017-10-27T04:24:25.886Z,99.90
2017-10-27T04:26:53.511Z,99.90
2017-10-27T04:29:21.156Z,99.90
2017-10-27T04:31:49.580Z,99.90
2017-10-27T04:34:17.232Z,99.90
2017-10-27T04:36:44.945Z,99.90
2017-10-27T04:39:12.583Z,99.90
2017-10-27T04:41:40.284Z,99.90
2017-10-27T04:44:08.664Z,99.90
2017-10-27T04:46:37.060Z,99.90
2017-10-27T04:49:04.721Z,99.90
2017-10-27T04:51:32.354Z,99.90
2017-10-27T04:54:00.784Z,99.90
2017-10-27T04:56:28.412Z,99.90
2017-10-27T04:58:56.075Z,99.90
2017-10-27T05:01:23.687Z,99.90
2017-10-27T05:03:51.306Z,99.90
2017-10-27T05:06:18.993Z,99.90
2017-10-27T05:08:46.636Z,99.90
2017-10-27T05:11:14.288Z,99.90
2017-10-27T05:13:41.904Z,99.90
2017-10-27T05:16:10.352Z,99.90
2017-10-27T05:18:43.619Z,99.90
2017-10-27T05:21:17.092Z,99.90
2017-10-27T05:23:50.387Z,99.90
2017-10-27T05:26:18.065Z,99.90
2017-10-27T05:28:45.688Z,99.90
2017-10-27T05:31:14.088Z,99.90
2017-10-27T05:33:41.780Z,99.90
2017-10-27T05:36:09.436Z,99.90
2017-10-27T05:38:37.100Z,99.90
2017-10-27T05:41:04.724Z,99.90
2017-10-27T05:43:32.468Z,99.90
2017-10-27T05:46:00.908Z,99.90
2017-10-27T05:48:28.720Z,99.90
2017-10-27T05:50:56.435Z,99.90
2017-10-27T05:53:24.151Z,99.90
2017-10-27T05:55:51.841Z,99.90
2017-10-27T05:58:19.522Z,99.90
2017-10-27T06:00:47.152Z,99.90
2017-10-27T06:03:14.803Z,99.90
2017-10-27T06:05:42.424Z,99.90
2017-10-27T06:08:10.096Z,99.90
2017-10-27T06:10:38.491Z,99.90
2017-10-27T06:13:06.251Z,99.90
2017-10-27T06:15:33.874Z,99.90
2017-10-27T06:18:01.483Z,99.90
2017-10-27T06:20:29.156Z,99.90
2017-10-27T06:22:56.771Z,99.90
2017-10-27T06:25:25.194Z,99.90
2017-10-27T06:27:52.813Z,99.90
2017-10-27T06:30:21.428Z,99.90
2017-10-27T06:32:49.736Z,99.90
2017-10-27T06:35:17.374Z,99.90
2017-10-27T06:37:45.019Z,99.90
2017-10-27T06:40:12.728Z,99.90
2017-10-27T06:42:40.407Z,99.90
2017-10-27T06:45:08.787Z,99.90
2017-10-27T06:47:37.248Z,99.90
2017-10-27T06:50:04.884Z,99.90
2017-10-27T06:52:32.593Z,99.90
2017-10-27T06:55:01.102Z,99.90
2017-10-27T06:57:28.752Z,99.90
2017-10-27T06:59:56.569Z,99.90
2017-10-27T07:02:24.253Z,99.90
2017-10-27T07:04:52.740Z,99.90
2017-10-27T07:07:21.154Z,99.90
2017-10-27T07:09:48.959Z,99.90
2017-10-27T07:12:16.592Z,99.90
2017-10-27T07:14:44.390Z,99.90
2017-10-27T07:17:12.872Z,99.90
2017-10-27T07:19:41.297Z,99.90
2017-10-27T07:22:09.056Z,99.90
2017-10-27T07:24:36.725Z,99.90
2017-10-27T07:27:04.552Z,99.90
2017-10-27T07:29:32.253Z,99.90
2017-10-27T07:31:59.940Z,99.90
2017-10-27T07:34:27.716Z,99.90
2017-10-27T07:36:56.196Z,99.90
2017-10-27T07:39:23.894Z,99.90
2017-10-27T07:41:51.590Z,99.90
2017-10-27T07:44:20.244Z,99.90
2017-10-27T07:46:48.022Z,99.90
2017-10-27T07:49:15.754Z,99.90
2017-10-27T07:51:43.488Z,99.90
2017-10-27T07:54:11.967Z,99.90
2017-10-27T07:56:40.450Z,99.90
2017-10-27T07:59:08.914Z,99.90
2017-10-27T08:01:36.627Z,99.90
2017-10-27T08:04:04.344Z,99.90
2017-10-27T08:06:32.068Z,99.90
2017-10-27T08:08:59.847Z,99.90
2017-10-27T08:11:27.512Z,99.90
2017-10-27T08:13:55.220Z,99.90
2017-10-27T08:16:22.970Z,99.90
2017-10-27T08:18:51.469Z,99.90
2017-10-27T08:21:19.521Z,99.90
2017-10-27T08:23:47.978Z,99.70
2017-10-27T08:26:15.872Z,99.70
2017-10-27T08:28:43.572Z,99.90
2017-10-27T08:31:11.444Z,99.90
2017-10-27T08:33:39.276Z,99.40
2017-10-27T08:36:07.016Z,99.60
2017-10-27T08:38:35.545Z,99.90
2017-10-27T08:41:03.374Z,99.90
2017-10-27T08:43:31.145Z,99.90
2017-10-27T08:45:58.850Z,99.90
2017-10-27T08:48:26.582Z,99.90
2017-10-27T08:50:54.323Z,99.90
2017-10-27T08:53:22.019Z,99.90
2017-10-27T08:55:49.768Z,99.90
2017-10-27T08:58:17.485Z,99.90
2017-10-27T09:00:46.009Z,99.90
2017-10-27T09:03:13.687Z,99.90
2017-10-27T09:05:41.456Z,99.90
2017-10-27T09:08:09.141Z,99.90
2017-10-27T09:10:37.595Z,99.90
2017-10-27T09:13:05.316Z,99.90
2017-10-27T09:15:33.017Z,99.90
2017-10-27T09:18:00.745Z,99.90
2017-10-27T09:20:28.435Z,99.90
2017-10-27T09:22:56.180Z,99.90
2017-10-27T09:25:23.870Z,99.90
2017-10-27T09:27:51.562Z,99.90
2017-10-27T09:30:20.051Z,99.90
2017-10-27T09:32:48.482Z,99.90
2017-10-27T09:35:16.258Z,99.90
2017-10-27T09:37:43.936Z,99.90
2017-10-27T09:40:12.583Z,99.90
2017-10-27T09:42:40.261Z,99.90
2017-10-27T09:45:07.933Z,99.90
2017-10-27T09:47:35.654Z,99.90
2017-10-27T09:50:03.367Z,99.90
2017-10-27T09:52:31.855Z,99.90
2017-10-27T09:55:00.312Z,99.90
2017-10-27T09:57:28.155Z,99.90
2017-10-27T09:59:55.865Z,99.90
2017-10-27T10:02:23.578Z,99.90
2017-10-27T10:04:51.285Z,99.90
2017-10-27T10:07:19.002Z,99.90
2017-10-27T10:09:46.691Z,99.90
2017-10-27T10:12:15.155Z,99.90
2017-10-27T10:14:42.892Z,99.90
2017-10-27T10:17:10.555Z,99.90
2017-10-27T10:19:38.249Z,99.90
2017-10-27T10:22:06.749Z,99.90
2017-10-27T10:24:34.499Z,99.90
2017-10-27T10:27:02.980Z,99.90
2017-10-27T10:29:31.420Z,99.90
2017-10-27T10:31:59.121Z,99.90
2017-10-27T10:34:27.589Z,99.90
2017-10-27T10:36:55.322Z,99.90
2017-10-27T10:39:22.994Z,99.90
2017-10-27T10:41:50.685Z,99.90
2017-10-27T10:44:19.234Z,99.90
2017-10-27T10:46:46.935Z,99.90
2017-10-27T10:49:15.417Z,99.90
2017-10-27T10:51:43.115Z,99.90
2017-10-27T10:54:10.917Z,99.90
2017-10-27T10:56:39.475Z,99.90
2017-10-27T10:59:07.242Z,99.90
2017-10-27T11:01:34.991Z,99.90
2017-10-27T11:04:02.721Z,99.90
2017-10-27T11:06:30.534Z,99.90
2017-10-27T11:08:58.236Z,99.90
2017-10-27T11:11:25.990Z,99.90
2017-10-27T11:13:54.426Z,99.90
2017-10-27T11:16:22.103Z,99.90
2017-10-27T11:18:49.811Z,99.90
2017-10-27T11:21:17.546Z,99.90
2017-10-27T11:23:46.037Z,99.90
2017-10-27T11:26:13.746Z,99.90
2017-10-27T11:28:42.364Z,99.90
2017-10-27T11:31:10.834Z,99.90
2017-10-27T11:33:38.535Z,99.90
2017-10-27T11:36:06.249Z,99.90
2017-10-27T11:38:33.934Z,99.90
2017-10-27T11:41:02.415Z,99.90
2017-10-27T11:43:30.933Z,99.90
2017-10-27T11:45:58.648Z,99.90
2017-10-27T11:48:27.086Z,99.90
2017-10-27T11:50:54.748Z,99.90
2017-10-27T11:53:22.432Z,99.90
2017-10-27T11:55:50.070Z,99.90
2017-10-27T11:58:17.819Z,99.90
2017-10-27T12:00:45.516Z,99.90
2017-10-27T12:03:13.270Z,99.90
2017-10-27T12:05:40.957Z,99.90
2017-10-27T12:08:09.725Z,99.90
2017-10-27T12:10:37.549Z,99.90
2017-10-27T12:13:05.243Z,99.90
2017-10-27T12:15:33.014Z,99.90
2017-10-27T12:18:00.783Z,99.90
2017-10-27T12:20:29.288Z,99.90
2017-10-27T12:22:56.977Z,99.90
2017-10-27T12:25:24.691Z,99.90
2017-10-27T12:27:53.213Z,99.90
2017-10-27T12:30:20.950Z,99.90
2017-10-27T12:32:49.471Z,99.90
2017-10-27T12:35:17.172Z,99.90
2017-10-27T12:37:45.052Z,99.90
2017-10-27T12:40:13.528Z,99.90
2017-10-27T12:42:42.011Z,99.90
2017-10-27T12:45:10.490Z,99.90
2017-10-27T12:47:38.911Z,99.90
2017-10-27T12:50:06.636Z,99.90
2017-10-27T12:52:35.069Z,99.90
2017-10-27T12:55:02.812Z,99.90
2017-10-27T12:57:30.440Z,99.90
2017-10-27T12:59:58.081Z,99.90
2017-10-27T13:02:26.563Z,99.90
2017-10-27T13:04:54.992Z,99.90
2017-10-27T13:07:23.345Z,99.90
2017-10-27T13:09:51.003Z,99.90
2017-10-27T13:12:18.754Z,99.60
2017-10-27T13:14:46.422Z,97.80
2017-10-27T13:17:14.126Z,97.40
2017-10-27T13:19:41.847Z,97.70
2017-10-27T13:22:09.531Z,99.50
2017-10-27T13:24:37.265Z,99.90
2017-10-27T13:27:04.957Z,97.10
2017-10-27T13:29:32.704Z,96.10
2017-10-27T13:32:00.389Z,97.70
2017-10-27T13:34:28.064Z,96.70
2017-10-27T13:36:55.791Z,97.30
2017-10-27T13:39:23.566Z,97.50
2017-10-27T13:41:51.264Z,96.50
2017-10-27T13:44:18.964Z,97.20
2017-10-27T13:46:46.816Z,97.80
2017-10-27T13:49:14.524Z,97.20
2017-10-27T13:51:42.189Z,97.70
2017-10-27T13:54:09.912Z,97.50
2017-10-27T13:56:37.601Z,98.00
2017-10-27T13:59:05.410Z,98.10
2017-10-27T14:01:33.124Z,97.90
2017-10-27T14:04:00.950Z,97.90
2017-10-27T14:06:28.669Z,97.90
2017-10-27T14:08:56.384Z,97.30
2017-10-27T14:11:24.100Z,96.10
2017-10-27T14:13:51.853Z,96.10
2017-10-27T14:16:19.565Z,95.80
2017-10-27T14:18:48.175Z,95.20
2017-10-27T14:21:15.983Z,94.70
2017-10-27T14:23:44.372Z,93.60
2017-10-27T14:26:12.753Z,93.10
2017-10-27T14:28:40.432Z,93.10
2017-10-27T14:31:08.091Z,93.40
2017-10-27T14:33:35.761Z,92.70
2017-10-27T14:36:03.903Z,92.70
2017-10-27T14:38:32.380Z,93.40
2017-10-27T14:41:00.778Z,93.60
2017-10-27T14:43:28.448Z,93.60
2017-10-27T14:45:56.131Z,94.40
2017-10-27T14:48:23.790Z,94.00
2017-10-27T14:50:51.523Z,94.80
2017-10-27T14:53:19.188Z,94.80
2017-10-27T14:55:47.091Z,93.80
2017-10-27T14:58:14.800Z,94.70
2017-10-27T15:00:42.489Z,94.00
2017-10-27T15:03:10.190Z,94.80
2017-10-27T15:05:37.860Z,94.70
2017-10-27T15:08:06.342Z,93.20
2017-10-27T15:10:34.782Z,92.10
2017-10-27T15:13:02.526Z,92.00
2017-10-27T15:15:30.191Z,91.30
2017-10-27T15:17:57.847Z,92.70
2017-10-27T15:20:25.524Z,91.70
2017-10-27T15:22:53.223Z,92.50
2017-10-27T15:25:21.733Z,94.70
2017-10-27T15:27:49.427Z,94.70
2017-10-27T15:30:17.159Z,95.30
2017-10-27T15:32:51.025Z,95.10
2017-10-27T15:35:18.743Z,95.70
2017-10-27T15:37:46.407Z,96.70
2017-10-27T15:40:14.028Z,96.40
2017-10-27T15:42:42.547Z,96.80
2017-10-27T15:45:10.291Z,96.80
2017-10-27T15:47:37.955Z,96.20
2017-10-27T15:50:05.604Z,96.80
2017-10-27T15:52:33.265Z,97.20
2017-10-27T15:55:00.879Z,96.80
2017-10-27T15:57:28.552Z,97.30
2017-10-27T15:59:56.215Z,97.70
2017-10-27T16:02:24.640Z,98.40
2017-10-27T16:04:53.251Z,98.50
2017-10-27T16:07:21.130Z,98.50
2017-10-27T16:09:49.380Z,98.90
2017-10-27T16:12:17.006Z,99.00
2017-10-27T16:14:44.699Z,99.30
2017-10-27T16:17:12.327Z,99.90
2017-10-27T16:19:39.960Z,99.90
2017-10-27T16:22:08.336Z,99.90
2017-10-27T16:24:36.756Z,99.90
2017-10-27T16:27:05.151Z,99.90
2017-10-27T16:29:32.782Z,99.90
2017-10-27T16:32:00.431Z,99.90
2017-10-27T16:34:28.080Z,99.90
2017-10-27T16:36:55.756Z,99.90
2017-10-27T16:39:23.387Z,99.90
2017-10-27T16:41:51.802Z,99.90
2017-10-27T16:44:19.477Z,99.90
2017-10-27T16:46:47.108Z,99.90
2017-10-27T16:49:14.786Z,99.90
2017-10-27T16:51:42.420Z,99.90
2017-10-27T16:54:10.272Z,99.90
2017-10-27T16:56:38.746Z,99.90
2017-10-27T16:59:07.155Z,99.90
2017-10-27T17:01:34.804Z,99.90
2017-10-27T17:04:02.420Z,99.90
2017-10-27T17:06:30.544Z,99.90
2017-10-27T17:08:58.832Z,99.90
2017-10-27T17:11:26.528Z,99.90
2017-10-27T17:13:54.208Z,99.90
2017-10-27T17:16:21.852Z,99.90
2017-10-27T17:18:49.563Z,99.90
2017-10-27T17:21:17.211Z,99.90
2017-10-27T17:23:44.899Z,99.90
2017-10-27T17:26:12.528Z,99.90
2017-10-27T17:28:40.968Z,99.90
2017-10-27T17:31:08.678Z,99.90
2017-10-27T17:33:36.375Z,99.90
2017-10-27T17:36:04.061Z,99.90
2017-10-27T17:38:32.543Z,99.90
2017-10-27T17:41:00.316Z,99.90
2017-10-27T17:43:28.776Z,99.90
2017-10-27T17:45:56.467Z,99.90
2017-10-27T17:48:24.959Z,99.90
2017-10-27T17:50:52.607Z,99.90
2017-10-27T17:53:21.051Z,99.90
2017-10-27T17:55:48.702Z,99.90
2017-10-27T17:58:16.407Z,99.90
2017-10-27T18:00:44.055Z,99.90
2017-10-27T18:03:12.473Z,99.90
2017-10-27T18:05:40.171Z,99.90
2017-10-27T18:08:07.828Z,99.90
2017-10-27T18:10:35.531Z,99.90
2017-10-27T18:13:03.267Z,99.90
2017-10-27T18:15:30.951Z,99.90
2017-10-27T18:17:58.688Z,99.90
2017-10-27T18:20:26.379Z,99.90
2017-10-27T18:22:54.082Z,99.90
2017-10-27T18:25:21.807Z,99.90
2017-10-27T18:27:49.456Z,99.90
2017-10-27T18:30:17.137Z,99.90
2017-10-27T18:32:44.821Z,99.90
2017-10-27T18:35:12.546Z,99.90
2017-10-27T18:37:40.197Z,99.90
2017-10-27T18:40:08.754Z,99.90
2017-10-27T18:42:36.391Z,99.90
2017-10-27T18:45:04.035Z,99.90
2017-10-27T18:47:31.705Z,99.90
2017-10-27T18:49:59.323Z,99.90
2017-10-27T18:52:27.810Z,99.90
2017-10-27T18:54:55.447Z,99.90
2017-10-27T18:57:23.894Z,99.90
2017-10-27T18:59:51.529Z,99.90
2017-10-27T19:02:19.147Z,99.90
2017-10-27T19:04:47.557Z,99.90
2017-10-27T19:07:15.255Z,99.90
2017-10-27T19:09:42.916Z,99.90
2017-10-27T19:12:10.584Z,99.90
2017-10-27T19:14:39.079Z,99.90
2017-10-27T19:17:07.471Z,99.90
2017-10-27T19:19:35.086Z,99.90
2017-10-27T19:22:02.775Z,99.90
2017-10-27T19:24:31.217Z,99.90
2017-10-27T19:26:59.025Z,99.90
2017-10-27T19:29:26.748Z,99.90
2017-10-27T19:31:54.479Z,99.90
2017-10-27T19:34:22.115Z,99.90
2017-10-27T19:36:49.764Z,99.90
2017-10-27T19:39:18.458Z,99.90
2017-10-27T19:41:46.917Z,99.90
2017-10-27T19:44:15.604Z,99.90
2017-10-27T19:46:43.260Z,99.90
2017-10-27T19:49:10.945Z,99.90
2017-10-27T19:51:39.487Z,99.90
2017-10-27T19:54:07.244Z,99.90
2017-10-27T19:56:35.909Z,99.90
2017-10-27T19:59:03.660Z,99.90
2017-10-27T20:01:31.419Z,99.90
2017-10-27T20:03:59.482Z,99.90
2017-10-27T20:06:27.495Z,99.90
2017-10-27T20:08:55.612Z,99.90
2017-10-27T20:11:23.495Z,99.90
2017-10-27T20:13:51.391Z,99.90
2017-10-27T20:16:19.206Z,99.90
2017-10-27T20:18:48.144Z,99.90
2017-10-27T20:21:16.269Z,99.90
2017-10-27T20:23:44.795Z,99.90
2017-10-27T20:26:12.896Z,99.90
2017-10-27T20:28:41.520Z,99.90
2017-10-27T20:31:09.709Z,99.90
2017-10-27T20:33:38.556Z,99.90
2017-10-27T20:36:07.208Z,99.90
2017-10-27T20:38:35.118Z,99.90
2017-10-27T20:41:03.080Z,99.90
2017-10-27T20:43:31.681Z,99.90
2017-10-27T20:46:00.936Z,99.90
2017-10-27T20:48:29.541Z,99.90
2017-10-27T20:50:57.984Z,99.90
2017-10-27T20:53:41.261Z,99.90
2017-10-27T20:56:10.842Z,99.90
2017-10-27T20:58:38.678Z,99.90
2017-10-27T21:01:06.809Z,99.90
2017-10-27T21:03:34.637Z,99.90
2017-10-27T21:06:03.148Z,99.90
2017-10-27T21:08:31.481Z,99.90
2017-10-27T21:10:59.571Z,99.90
2017-10-27T21:13:27.765Z,99.90
2017-10-27T21:15:55.921Z,99.90
2017-10-27T21:18:25.020Z,99.90
2017-10-27T21:20:53.087Z,99.90
2017-10-27T21:23:21.419Z,99.90
2017-10-27T21:25:49.133Z,99.90
2017-10-27T21:28:16.785Z,99.90
2017-10-27T21:30:44.434Z,99.90
2017-10-27T21:33:12.939Z,99.90
2017-10-27T21:35:40.767Z,99.90
2017-10-27T21:38:09.516Z,99.90
2017-10-27T21:40:37.218Z,99.90
2017-10-27T21:43:05.710Z,99.90
2017-10-27T21:45:33.445Z,99.90
2017-10-27T21:48:01.198Z,99.90
2017-10-27T21:50:28.861Z,99.90
2017-10-27T21:52:56.592Z,99.90
2017-10-27T21:55:24.922Z,99.90
2017-10-27T21:57:53.344Z,99.90
2017-10-27T22:00:21.123Z,99.90
2017-10-27T22:02:48.859Z,99.90
2017-10-27T22:05:16.516Z,99.90
2017-10-27T22:07:44.161Z,99.90
2017-10-27T22:10:11.937Z,99.90
2017-10-27T22:12:39.556Z,99.90
2017-10-27T22:15:08.069Z,99.90
2017-10-27T22:17:35.736Z,99.90
2017-10-27T22:20:03.549Z,99.90
2017-10-27T22:22:31.307Z,99.90
2017-10-27T22:24:59.810Z,99.90
2017-10-27T22:27:27.565Z,99.90
2017-10-27T22:29:56.040Z,99.90
2017-10-27T22:32:23.691Z,99.90
2017-10-27T22:34:51.386Z,99.90
2017-10-27T22:37:19.835Z,99.90
2017-10-27T22:39:47.491Z,99.90
2017-10-27T22:42:15.259Z,99.90
2017-10-27T22:44:43.855Z,99.90
2017-10-27T22:47:12.418Z,99.90
2017-10-27T22:49:40.683Z,99.90
2017-10-27T22:52:09.220Z,99.90
2017-10-27T22:54:37.688Z,99.90
2017-10-27T22:57:05.558Z,99.90
2017-10-27T22:59:33.271Z,99.90
2017-10-27T23:02:00.968Z,99.90
2017-10-27T23:04:29.351Z,99.90
2017-10-27T23:06:57.028Z,99.90
2017-10-27T23:09:24.761Z,99.90
2017-10-27T23:11:53.381Z,99.90
2017-10-27T23:14:21.034Z,99.90
2017-10-27T23:16:48.697Z,99.90
2017-10-27T23:19:16.419Z,99.90
2017-10-27T23:21:44.887Z,99.90
2017-10-27T23:24:12.653Z,99.90
2017-10-27T23:26:40.328Z,99.90
2017-10-27T23:29:08.823Z,99.90
2017-10-27T23:31:36.461Z,99.90
2017-10-27T23:34:04.866Z,99.90
2017-10-27T23:36:32.524Z,99.90
2017-10-27T23:39:00.144Z,99.90
2017-10-27T23:41:27.855Z,99.90
2017-10-27T23:43:55.464Z,99.90
2017-10-27T23:46:23.228Z,99.90
2017-10-27T23:48:50.854Z,99.90
2017-10-27T23:51:18.512Z,99.90
2017-10-27T23:53:46.230Z,99.90
2017-10-27T23:56:14.650Z,99.90
2017-10-27T23:58:42.318Z,99.90
